Airfield :
LOGIN :

Register | Disclaimer

   EN    FR    IT 

 










Legend :    VFR   Marginal VFR   IFR   Intensive IFR   Very Intensive IFR
Visi :
Ceiling :
>= 8 km
>= 3000ft
5 to 8 km
1000 to 3000 ft
1500m to 5 km
500 to 1000 ft
800 to 1500m
200 to 500 ft
< 800m
< 200 ft
Symbols :   Thunderstorms  Fog  Heavy snow  Heavy precipitations  Wind > 20 kt
SIGMETs :     Misc.  Thunderstorms  Icing  Turbulence  Mountain Waves  Volcanic Ashes






- Airport Elevation : 681 ft
- IATA code : LBA


EGNM - Leeds Bradford

CURRENT METAR :
  • 301350Z 27018KT 9999 -RADZ SCT006 BKN008 10/08 Q1016

EXPIRED METARs :
  • 301320Z 26014KT 9999 -RADZ SCT004 BKN007 09/08 Q1016
  • 301250Z 25016KT 9999 -RADZ BKN008 09/08 Q1017
  • 301220Z 25016KT 9999 -RADZ BKN008 09/08 Q1017
  • 301150Z 25012KT 9999 BKN009 09/07 Q1018
  • 301120Z 25018KT 9999 BKN011 08/07 Q1018

TAF TAF EGNM
Valid from the 30 at 12:00 until the 01 at 12:00 UTC


301058Z 3012/0112 25014KT 9999 FEW010 SCT025
PROB40
TEMPO 3012/3018 26020G32KT
PROB30
TEMPO 3012/3015 4000 RADZ BKN008
BECMG 3015/3018 31008KT
PROB30
TEMPO 3015/3017 7000 SHRA BKN014
PROB30
TEMPO 3018/3021 32015G25KT
ATIS : +44 113 250 9696 (x2489)



MET'MAP, your aeronautical weather chart ! - Copyright ORBIFLY December 2007 - Disclaimer

ORBIFLY MET'MAP TEAM :

Programming & Development : Alexandra Zaïnal
Concept & original design : Baudouin d'Aumeries
Assistance for programming : Marc-Olivier Méhu
Technical & hardware support : Manuel Goepfert

Contact : metmap@orbifly.com




SOURCES & CREDITS :

   NOAA